Time;durP1;ratioP1;P1;durP2;ratioP2;P2;SDS_P1;SDS_P2;PMS_P1;PMS_P2;Temp;Humidity;BMP_temperature;BMP_pressure;BME280_temperature;BME280_humidity;BME280_pressure;Samples;Min_cycle;Max_cycle;Signal;HPM_P1;HPM_P2
2021/01/15 00:02:21;;;;;;;0.50;0.40;;;;;;;2.23;100.00;101522.69;5080361;28;20938;-77
2021/01/15 00:04:48;;;;;;;0.40;0.30;;;;;;;2.04;100.00;101523.72;5080586;28;20445;-77
2021/01/15 00:07:14;;;;;;;0.40;0.20;;;;;;;2.08;100.00;101524.91;5080807;28;20457;-79
2021/01/15 00:09:41;;;;;;;0.40;0.30;;;;;;;2.02;100.00;101517.78;5080166;28;20861;-77
2021/01/15 00:12:07;;;;;;;0.40;0.40;;;;;;;2.09;100.00;101531.06;5081118;28;20429;-77
2021/01/15 00:14:34;;;;;;;3.63;1.27;;;;;;;2.11;100.00;101526.31;5080259;28;20444;-78
2021/01/15 00:17:00;;;;;;;0.50;0.50;;;;;;;2.12;100.00;101535.97;5080396;28;20448;-78
2021/01/15 00:19:26;;;;;;;0.40;0.30;;;;;;;2.07;100.00;101525.13;5080426;28;20879;-78
2021/01/15 00:21:52;;;;;;;0.40;0.30;;;;;;;1.99;100.00;101532.41;5080039;28;20453;-77
2021/01/15 00:24:20;;;;;;;0.40;0.30;;;;;;;2.05;100.00;101527.22;5080269;28;20446;-77
2021/01/15 00:26:47;;;;;;;0.40;0.30;;;;;;;2.12;100.00;101522.59;5080066;28;20445;-77
2021/01/15 00:29:15;;;;;;;0.40;0.30;;;;;;;2.19;100.00;101526.84;5080202;28;20476;-78
2021/01/15 00:31:43;;;;;;;0.77;0.77;;;;;;;2.15;100.00;101522.97;5080498;28;20463;-77
2021/01/15 00:34:10;;;;;;;0.40;0.30;;;;;;;2.13;100.00;101524.25;5080041;28;20478;-77
2021/01/15 00:36:38;;;;;;;0.53;0.53;;;;;;;2.03;100.00;101522.88;5080348;28;20485;-77
2021/01/15 00:39:05;;;;;;;0.40;0.27;;;;;;;1.99;100.00;101520.88;5080680;28;20501;-77
2021/01/15 00:41:34;;;;;;;0.40;0.30;;;;;;;2.03;100.00;101522.88;5079773;28;20451;-77
2021/01/15 00:44:01;;;;;;;0.40;0.30;;;;;;;1.99;100.00;101521.72;5079370;28;20511;-78
2021/01/15 00:46:33;;;;;;;0.40;0.30;;;;;;;2.08;100.00;101524.06;5079879;28;20437;-78
2021/01/15 00:49:01;;;;;;;1.27;1.17;;;;;;;2.02;100.00;101520.44;5079788;28;20461;-78
2021/01/15 00:51:27;;;;;;;0.40;0.30;;;;;;;1.87;100.00;101520.81;5079394;28;20580;-78
2021/01/15 00:53:53;;;;;;;0.40;0.30;;;;;;;1.84;100.00;101521.22;5079770;28;20499;-77
2021/01/15 00:56:20;;;;;;;2.40;0.57;;;;;;;1.91;100.00;101522.00;5078973;28;20492;-77
2021/01/15 00:58:47;;;;;;;1.07;0.60;;;;;;;2.00;100.00;101528.69;5078850;28;20471;-78
2021/01/15 01:01:16;;;;;;;0.40;0.20;;;;;;;2.10;100.00;101522.81;5079605;28;20570;-77
2021/01/15 01:03:42;;;;;;;0.63;0.40;;;;;;;2.10;100.00;101530.84;5079449;28;20445;-77
2021/01/15 01:06:10;;;;;;;0.97;0.87;;;;;;;2.03;100.00;101532.75;5079002;28;20497;-77
2021/01/15 01:08:36;;;;;;;0.40;0.30;;;;;;;2.01;100.00;101534.84;5079377;28;20485;-77
2021/01/15 01:11:03;;;;;;;1.40;1.30;;;;;;;1.99;100.00;101535.06;5079519;28;20437;-77
2021/01/15 01:13:29;;;;;;;1.23;1.13;;;;;;;1.89;100.00;101536.59;5079830;28;20444;-78
2021/01/15 01:15:55;;;;;;;0.60;0.60;;;;;;;2.00;100.00;101542.03;5079154;28;20484;-78
2021/01/15 01:18:22;;;;;;;0.40;0.27;;;;;;;2.03;100.00;101538.09;5078360;28;20472;-77
2021/01/15 01:20:48;;;;;;;0.40;0.30;;;;;;;2.03;100.00;101540.78;5078406;28;20453;-78
2021/01/15 01:23:15;;;;;;;0.50;0.40;;;;;;;1.98;100.00;101551.31;5079561;28;20464;-77
2021/01/15 01:25:41;;;;;;;0.40;0.30;;;;;;;1.80;100.00;101552.09;5079439;28;20442;-77
2021/01/15 01:28:07;;;;;;;0.40;0.30;;;;;;;1.87;100.00;101552.84;5079718;28;20485;-78
2021/01/15 01:30:33;;;;;;;0.70;0.57;;;;;;;1.89;100.00;101557.97;5079232;28;20445;-78
2021/01/15 01:32:59;;;;;;;0.70;0.70;;;;;;;1.93;100.00;101561.84;5078826;28;20440;-77
2021/01/15 01:35:26;;;;;;;0.40;0.30;;;;;;;2.01;100.00;101564.25;5078978;28;20492;-77
2021/01/15 01:37:53;;;;;;;0.40;0.37;;;;;;;1.99;100.00;101563.63;5078724;28;20522;-77
2021/01/15 01:40:20;;;;;;;0.60;0.43;;;;;;;2.00;100.00;101565.28;5078705;28;20431;-78
2021/01/15 01:42:46;;;;;;;0.50;0.40;;;;;;;2.00;100.00;101566.09;5079287;28;20445;-78
2021/01/15 01:45:14;;;;;;;0.40;0.20;;;;;;;2.02;100.00;101557.84;5078883;28;20817;-77
2021/01/15 01:47:40;;;;;;;0.50;0.40;;;;;;;2.03;100.00;101570.16;5079140;28;20470;-78
2021/01/15 01:50:08;;;;;;;0.63;0.63;;;;;;;2.05;100.00;101572.63;5078991;28;20948;-77
2021/01/15 01:52:36;;;;;;;1.13;1.13;;;;;;;2.00;100.00;101562.59;5078555;28;20452;-78
2021/01/15 01:55:03;;;;;;;0.40;0.30;;;;;;;2.01;100.00;101561.56;5078425;28;20452;-78
2021/01/15 01:57:30;;;;;;;0.40;0.30;;;;;;;2.06;100.00;101568.91;5078321;28;20476;-77
2021/01/15 01:59:56;;;;;;;1.63;1.53;;;;;;;2.07;100.00;101571.34;5078702;28;20448;-77
2021/01/15 02:02:22;;;;;;;0.97;0.60;;;;;;;2.05;100.00;101569.97;5078350;28;21014;-78
2021/01/15 02:04:49;;;;;;;0.40;0.30;;;;;;;2.07;100.00;101576.69;5079050;28;20438;-78
2021/01/15 02:07:16;;;;;;;0.40;0.30;;;;;;;1.98;99.57;101578.84;5078438;28;20449;-78
2021/01/15 02:09:47;;;;;;;0.40;0.30;;;;;;;1.98;100.00;101581.50;5078738;28;20459;-78
2021/01/15 02:12:27;;;;;;;4.00;0.80;;;;;;;1.89;100.00;101574.00;5078802;28;20426;-78
2021/01/15 02:15:02;;;;;;;0.40;0.30;;;;;;;1.88;100.00;101572.38;5078555;28;20524;-77
2021/01/15 02:17:33;;;;;;;0.40;0.27;;;;;;;1.90;100.00;101572.94;5078471;28;20816;-78
2021/01/15 02:20:21;;;;;;;0.40;0.20;;;;;;;1.95;100.00;101571.28;5076178;28;20461;-77
2021/01/15 02:22:59;;;;;;;0.40;0.20;;;;;;;2.00;100.00;101566.09;5076504;28;20432;-77
2021/01/15 02:26:19;;;;;;;0.40;0.40;;;;;;;2.01;99.68;101569.56;5077037;28;20415;-77
2021/01/15 02:29:09;;;;;;;1.07;0.97;;;;;;;2.02;99.99;101568.53;5078356;28;20833;-78
2021/01/15 02:32:04;;;;;;;0.40;0.20;;;;;;;2.08;99.90;101566.81;5078534;28;20430;-78
2021/01/15 02:34:40;;;;;;;0.67;0.67;;;;;;;2.02;99.34;101580.03;5078760;28;20432;-77
2021/01/15 02:37:16;;;;;;;0.40;0.40;;;;;;;2.03;99.68;101587.00;5077974;28;20827;-78
2021/01/15 02:39:53;;;;;;;0.40;0.30;;;;;;;2.07;99.64;101582.03;5077198;28;20461;-77
2021/01/15 02:42:23;;;;;;;0.40;0.30;;;;;;;2.10;99.75;101591.50;5076892;28;20436;-78
2021/01/15 02:44:52;;;;;;;0.40;0.30;;;;;;;2.11;99.68;101591.25;5075492;28;20450;-78
2021/01/15 02:47:24;;;;;;;0.40;0.20;;;;;;;2.10;99.26;101596.84;5074790;28;21015;-77
2021/01/15 02:49:52;;;;;;;2.83;0.80;;;;;;;2.03;99.46;101592.34;5078748;28;20428;-78
2021/01/15 02:52:18;;;;;;;0.40;0.30;;;;;;;1.97;99.87;101598.59;5078938;28;20433;-78
2021/01/15 02:54:45;;;;;;;0.40;0.20;;;;;;;1.96;99.79;101596.13;5078987;28;20449;-78
2021/01/15 02:57:11;;;;;;;0.40;0.30;;;;;;;1.89;99.55;101598.84;5081615;28;20579;-78
2021/01/15 02:59:37;;;;;;;0.40;0.30;;;;;;;1.93;99.90;101593.91;5082317;28;20448;-78
2021/01/15 03:02:08;;;;;;;0.50;0.40;;;;;;;2.00;99.71;101602.69;5081571;28;20444;-77
2021/01/15 03:04:41;;;;;;;0.60;0.50;;;;;;;1.90;99.77;101608.50;5082008;28;20453;-78
2021/01/15 03:07:11;;;;;;;0.90;0.70;;;;;;;1.89;99.95;101600.72;5082186;28;20425;-78
2021/01/15 03:09:42;;;;;;;0.40;0.30;;;;;;;1.71;100.00;101604.94;5082196;28;20496;-78
2021/01/15 03:12:09;;;;;;;0.40;0.20;;;;;;;1.67;100.00;101606.41;5081875;28;20622;-77
2021/01/15 03:14:37;;;;;;;1.80;0.73;;;;;;;1.65;100.00;101613.03;5081718;28;20448;-78
2021/01/15 03:17:05;;;;;;;0.40;0.30;;;;;;;1.76;100.00;101614.97;5080616;28;20483;-78
2021/01/15 03:19:33;;;;;;;0.40;0.27;;;;;;;1.83;100.00;101617.63;5080353;28;20547;-77
2021/01/15 03:22:09;;;;;;;0.40;0.30;;;;;;;1.87;100.00;101616.97;5079979;28;20454;-77
2021/01/15 03:24:35;;;;;;;0.40;0.30;;;;;;;1.75;99.36;101614.16;5079004;28;20908;-77
2021/01/15 03:27:02;;;;;;;1.63;1.20;;;;;;;1.61;100.00;101615.31;5078669;28;20477;-77
2021/01/15 03:29:28;;;;;;;0.40;0.30;;;;;;;1.65;99.91;101621.84;5081118;28;20479;-78
2021/01/15 03:31:54;;;;;;;0.40;0.30;;;;;;;1.80;99.79;101615.38;5080563;28;20440;-78
2021/01/15 03:34:20;;;;;;;0.40;0.30;;;;;;;1.76;99.95;101612.31;5080442;28;20949;-77
2021/01/15 03:36:46;;;;;;;0.40;0.27;;;;;;;1.89;100.00;101616.72;5079818;28;20489;-78
2021/01/15 03:39:13;;;;;;;1.50;1.20;;;;;;;1.91;99.94;101602.13;5079968;28;20517;-78
2021/01/15 03:41:40;;;;;;;0.40;0.20;;;;;;;1.93;99.80;101601.91;5079637;28;20445;-78
2021/01/15 03:44:06;;;;;;;0.40;0.40;;;;;;;1.92;99.08;101594.94;5080699;28;20428;-78
2021/01/15 03:46:32;;;;;;;0.40;0.30;;;;;;;1.95;98.46;101589.16;5080974;28;20434;-78
2021/01/15 03:48:59;;;;;;;1.27;0.50;;;;;;;1.92;98.06;101592.25;5080653;28;20526;-77
2021/01/15 03:51:25;;;;;;;0.40;0.30;;;;;;;1.96;98.16;101590.78;5080291;28;20441;-78
2021/01/15 03:53:51;;;;;;;0.60;0.40;;;;;;;1.93;98.46;101600.06;5080743;28;20444;-78
2021/01/15 03:56:18;;;;;;;0.60;0.50;;;;;;;1.90;98.09;101603.16;5080601;28;20480;-78
2021/01/15 03:58:45;;;;;;;1.17;0.40;;;;;;;1.86;98.30;101606.47;5079567;28;20469;-78
2021/01/15 04:01:11;;;;;;;0.40;0.30;;;;;;;1.81;98.81;101598.31;5079356;28;20526;-77
2021/01/15 04:03:38;;;;;;;0.40;0.20;;;;;;;1.80;98.76;101610.03;5078053;28;20528;-78
2021/01/15 04:06:05;;;;;;;0.60;0.60;;;;;;;1.73;99.00;101610.09;5077625;28;20890;-78
2021/01/15 04:08:31;;;;;;;0.40;0.30;;;;;;;1.60;99.72;101616.34;5080581;28;21059;-78
2021/01/15 04:10:57;;;;;;;0.40;0.30;;;;;;;1.65;99.76;101613.84;5081674;28;20449;-78
2021/01/15 04:13:24;;;;;;;0.40;0.30;;;;;;;1.75;99.38;101611.50;5080827;28;20441;-77
2021/01/15 04:15:51;;;;;;;0.67;0.67;;;;;;;1.64;99.41;101611.38;5081285;28;20505;-78
2021/01/15 04:18:17;;;;;;;5.60;0.57;;;;;;;1.55;99.81;101608.16;5080722;28;20463;-78
2021/01/15 04:20:43;;;;;;;1.33;0.40;;;;;;;1.65;100.00;101616.50;5080344;28;20451;-78
2021/01/15 04:23:09;;;;;;;0.50;0.40;;;;;;;1.69;100.00;101606.22;5080436;28;20437;-78
2021/01/15 04:25:36;;;;;;;0.40;0.27;;;;;;;1.72;100.00;101606.56;5080695;28;20443;-78
2021/01/15 04:28:03;;;;;;;1.53;1.43;;;;;;;1.70;99.27;101611.34;5087979;22;20489;-67
2021/01/15 04:30:30;;;;;;;0.40;0.40;;;;;;;1.63;99.99;101612.41;5054526;28;20492;-67
2021/01/15 04:32:56;;;;;;;0.70;0.60;;;;;;;1.76;100.00;101613.13;5054423;28;20474;-67
2021/01/15 04:35:22;;;;;;;0.40;0.30;;;;;;;1.58;98.61;101610.38;5054263;28;20521;-68
2021/01/15 04:37:49;;;;;;;1.33;1.23;;;;;;;1.55;99.19;101605.50;5054332;28;20444;-67
2021/01/15 04:40:16;;;;;;;0.50;0.40;;;;;;;1.64;99.05;101606.88;5053920;28;20475;-68
2021/01/15 04:42:44;;;;;;;0.40;0.40;;;;;;;1.46;98.55;101604.09;5054302;28;20452;-68
2021/01/15 04:45:12;;;;;;;2.00;1.03;;;;;;;1.36;99.21;101601.91;5053839;28;20540;-68
2021/01/15 04:47:42;;;;;;;1.83;0.63;;;;;;;1.33;100.00;101609.50;5053842;28;20446;-68
2021/01/15 04:50:11;;;;;;;1.47;0.80;;;;;;;1.32;99.52;101607.88;5053888;28;20447;-67
2021/01/15 04:52:45;;;;;;;0.40;0.30;;;;;;;1.33;98.92;101599.69;5053995;28;20438;-67
2021/01/15 04:55:16;;;;;;;0.40;0.30;;;;;;;1.31;98.53;101606.25;5053959;28;20419;-68
2021/01/15 04:57:44;;;;;;;0.40;0.30;;;;;;;1.26;98.41;101612.22;5054063;28;20790;-68
2021/01/15 05:00:15;;;;;;;0.43;0.43;;;;;;;1.35;98.53;101604.78;5053525;28;20462;-67
2021/01/15 05:02:46;;;;;;;0.40;0.20;;;;;;;1.29;98.06;101613.66;5053607;28;20920;-67
2021/01/15 05:05:20;;;;;;;0.40;0.30;;;;;;;1.38;98.44;101607.84;5053614;28;20902;-67
2021/01/15 05:08:10;;;;;;;0.40;0.30;;;;;;;1.37;97.29;101613.38;5053833;28;20830;-67
2021/01/15 05:10:39;;;;;;;0.60;0.50;;;;;;;1.35;97.36;101615.47;5053779;28;20471;-67
2021/01/15 05:13:07;;;;;;;0.40;0.30;;;;;;;1.45;97.32;101615.81;5053739;28;20517;-67
2021/01/15 05:15:34;;;;;;;0.40;0.30;;;;;;;1.50;97.15;101613.31;5053587;28;20482;-67
2021/01/15 05:18:03;;;;;;;0.50;0.50;;;;;;;1.57;96.91;101603.41;5053645;28;20546;-69
2021/01/15 05:20:31;;;;;;;0.87;0.63;;;;;;;1.58;96.88;101613.06;5052458;28;20447;-68
2021/01/15 05:23:00;;;;;;;0.40;0.30;;;;;;;1.45;95.24;101605.13;5053125;28;20442;-68
2021/01/15 05:25:26;;;;;;;1.23;0.53;;;;;;;1.54;95.76;101614.50;5053438;28;20446;-67
2021/01/15 05:27:53;;;;;;;0.40;0.30;;;;;;;1.61;95.74;101617.16;5053297;28;20446;-68
2021/01/15 05:30:21;;;;;;;0.40;0.30;;;;;;;1.67;95.85;101613.59;5053374;28;20501;-68
2021/01/15 05:32:50;;;;;;;0.40;0.30;;;;;;;1.73;96.78;101613.56;5053150;28;20452;-68
2021/01/15 05:35:17;;;;;;;0.40;0.20;;;;;;;1.69;96.37;101617.72;5053260;28;20448;-67
2021/01/15 05:37:55;;;;;;;0.40;0.20;;;;;;;1.75;96.69;101616.84;5053335;28;20515;-67
2021/01/15 05:40:37;;;;;;;0.40;0.30;;;;;;;1.88;96.83;101620.44;5052921;28;20456;-69
2021/01/15 05:43:04;;;;;;;0.40;0.23;;;;;;;1.83;96.27;101625.63;5053253;28;20436;-68
2021/01/15 05:45:30;;;;;;;0.40;0.30;;;;;;;1.73;96.26;101618.91;5053175;28;20500;-68
2021/01/15 05:47:57;;;;;;;0.70;0.60;;;;;;;1.81;96.13;101625.81;5052915;28;20452;-68
2021/01/15 05:50:38;;;;;;;0.67;0.50;;;;;;;1.80;96.30;101623.38;5053092;28;20467;-66
2021/01/15 05:53:04;;;;;;;0.40;0.30;;;;;;;1.84;95.93;101628.06;5052902;28;20433;-67
2021/01/15 05:55:30;;;;;;;0.40;0.20;;;;;;;1.83;95.99;101630.97;5052732;28;20510;-67
2021/01/15 05:58:08;;;;;;;0.40;0.30;;;;;;;1.87;96.19;101634.84;5053096;28;20462;-67
2021/01/15 06:00:37;;;;;;;0.50;0.40;;;;;;;1.84;96.04;101628.06;5052747;28;20455;-67
2021/01/15 06:03:07;;;;;;;1.57;0.60;;;;;;;1.89;96.38;101638.09;5053185;28;20849;-67
2021/01/15 06:05:35;;;;;;;0.40;0.27;;;;;;;1.88;96.05;101641.81;5053021;28;20584;-67
2021/01/15 06:08:02;;;;;;;0.40;0.30;;;;;;;1.91;96.39;101642.22;5053129;28;20435;-67
2021/01/15 06:10:40;;;;;;;0.40;0.30;;;;;;;1.87;95.68;101634.84;5052874;28;20503;-70
2021/01/15 06:13:06;;;;;;;0.40;0.30;;;;;;;1.80;95.94;101650.09;5052974;28;20444;-69
2021/01/15 06:15:44;;;;;;;0.40;0.30;;;;;;;1.77;95.76;101644.16;5052854;28;20482;-70
2021/01/15 06:18:18;;;;;;;0.40;0.30;;;;;;;1.75;96.34;101653.41;5052856;28;20458;-70
2021/01/15 06:20:46;;;;;;;1.23;0.70;;;;;;;1.77;96.06;101657.50;5052593;28;20472;-69
2021/01/15 06:23:14;;;;;;;1.80;1.23;;;;;;;1.81;95.74;101651.72;5052928;28;20441;-68
2021/01/15 06:25:56;;;;;;;2.53;0.60;;;;;;;1.78;96.09;101653.00;5052821;28;20477;-70
2021/01/15 06:28:32;;;;;;;0.40;0.20;;;;;;;1.79;95.88;101659.16;5052481;28;20836;-69
2021/01/15 06:30:59;;;;;;;0.80;0.40;;;;;;;1.70;95.67;101659.41;5052575;28;20425;-69
2021/01/15 06:33:25;;;;;;;0.40;0.30;;;;;;;1.69;95.41;101655.09;5055317;28;20515;-69
2021/01/15 06:35:52;;;;;;;1.43;0.53;;;;;;;1.62;95.93;101665.00;5056583;28;20517;-69
2021/01/15 06:38:20;;;;;;;0.40;0.30;;;;;;;1.61;95.46;101671.38;5056498;28;20447;-69
2021/01/15 06:40:48;;;;;;;0.63;0.63;;;;;;;1.62;95.61;101673.00;5056192;28;20438;-70
2021/01/15 06:43:21;;;;;;;0.40;0.20;;;;;;;1.68;95.14;101672.16;5056293;28;20472;-70
2021/01/15 06:45:49;;;;;;;0.40;0.30;;;;;;;1.72;95.50;101675.19;5056134;28;20897;-70
2021/01/15 06:48:17;;;;;;;1.33;1.23;;;;;;;1.68;94.66;101674.00;5056371;28;20438;-70
2021/01/15 06:50:46;;;;;;;0.40;0.30;;;;;;;1.67;94.34;101683.84;5056429;28;20445;-70
2021/01/15 06:53:19;;;;;;;0.90;0.67;;;;;;;1.62;94.51;101681.00;5056419;28;20439;-70
2021/01/15 06:55:46;;;;;;;0.40;0.30;;;;;;;1.57;94.81;101688.84;5055893;28;21018;-70
2021/01/15 06:58:19;;;;;;;0.50;0.47;;;;;;;1.59;94.93;101686.78;5056213;28;20441;-70
2021/01/15 07:01:13;;;;;;;0.40;0.30;;;;;;;1.66;94.70;101689.41;5055989;28;20785;-70
2021/01/15 07:04:01;;;;;;;0.40;0.30;;;;;;;1.56;94.40;101689.88;5056247;28;20438;-69
2021/01/15 07:06:29;;;;;;;0.40;0.30;;;;;;;1.49;94.25;101697.09;5056110;28;20426;-68
2021/01/15 07:08:57;;;;;;;0.40;0.30;;;;;;;1.59;94.39;101697.44;5055686;28;20986;-70
2021/01/15 07:11:25;;;;;;;0.60;0.40;;;;;;;1.51;93.95;101701.22;5055709;28;20448;-70
2021/01/15 07:13:54;;;;;;;0.40;0.30;;;;;;;1.48;93.46;101703.47;5056008;28;20496;-70
2021/01/15 07:16:28;;;;;;;0.40;0.40;;;;;;;1.38;93.28;101705.78;5055832;28;20513;-70
2021/01/15 07:19:09;;;;;;;0.40;0.30;;;;;;;1.52;93.41;101705.50;5055552;28;20465;-70
2021/01/15 07:21:36;;;;;;;0.40;0.30;;;;;;;1.55;92.31;101706.94;5055857;28;20425;-72
2021/01/15 07:24:05;;;;;;;0.40;0.30;;;;;;;1.44;92.05;101705.75;5055501;28;20936;-70
2021/01/15 07:26:39;;;;;;;0.40;0.30;;;;;;;1.51;91.78;101711.88;5055725;28;20477;-71
2021/01/15 07:29:07;;;;;;;0.40;0.23;;;;;;;1.46;91.50;101708.19;5055278;28;21026;-70
2021/01/15 07:31:37;;;;;;;0.40;0.30;;;;;;;1.43;90.55;101709.47;5055365;28;20446;-70
2021/01/15 07:34:06;;;;;;;0.70;0.70;;;;;;;1.33;90.98;101713.59;5055065;28;20485;-71
2021/01/15 07:36:34;;;;;;;0.50;0.40;;;;;;;1.37;90.93;101712.13;5055467;28;20513;-71
2021/01/15 07:39:10;;;;;;;0.40;0.30;;;;;;;1.21;90.12;101719.59;5055199;28;20493;-71
2021/01/15 07:41:45;;;;;;;0.40;0.20;;;;;;;1.26;90.26;101721.63;5055251;28;20435;-70
2021/01/15 07:44:37;;;;;;;0.50;0.40;;;;;;;1.33;91.46;101710.94;5054278;28;20527;-70
2021/01/15 07:47:04;;;;;;;0.40;0.30;;;;;;;1.21;90.15;101719.59;5055266;28;20521;-70
2021/01/15 07:49:45;;;;;;;0.40;0.20;;;;;;;1.24;91.31;101721.03;5055186;28;20871;-70
2021/01/15 07:52:12;;;;;;;1.43;0.57;;;;;;;1.31;90.90;101726.34;5052941;28;20458;-67
2021/01/15 07:55:00;;;;;;;8.33;0.67;;;;;;;1.37;89.75;101728.16;5055040;28;20446;-70
2021/01/15 07:57:28;;;;;;;0.40;0.30;;;;;;;1.36;89.84;101734.53;5055011;28;20483;-70
2021/01/15 07:59:54;;;;;;;0.40;0.30;;;;;;;1.43;90.67;101736.16;5055095;28;20462;-69
2021/01/15 08:02:21;;;;;;;0.40;0.30;;;;;;;1.48;90.75;101732.84;5055053;28;20447;-69
2021/01/15 08:04:47;;;;;;;0.40;0.40;;;;;;;1.53;91.12;101733.03;5055065;28;20453;-69
2021/01/15 08:07:22;;;;;;;2.00;1.03;;;;;;;1.43;91.29;101730.81;5055050;28;20442;-69
2021/01/15 08:09:48;;;;;;;0.40;0.20;;;;;;;1.50;91.49;101731.59;5054848;28;20470;-69
2021/01/15 08:12:15;;;;;;;0.50;0.40;;;;;;;1.48;91.94;101738.19;5054913;28;20929;-69
2021/01/15 08:14:42;;;;;;;0.40;0.30;;;;;;;1.43;91.86;101732.66;5054579;28;20437;-69
2021/01/15 08:17:11;;;;;;;0.40;0.30;;;;;;;1.40;91.97;101731.22;5054918;28;20521;-69
2021/01/15 08:19:38;;;;;;;0.40;0.30;;;;;;;1.35;91.50;101738.25;5054687;28;20534;-69
2021/01/15 08:22:07;;;;;;;0.57;0.33;;;;;;;1.48;92.23;101735.50;5054587;28;20447;-69
2021/01/15 08:24:46;;;;;;;2.00;1.80;;;;;;;1.47;92.16;101726.69;5054280;28;20960;-69
2021/01/15 08:27:17;;;;;;;1.43;0.60;;;;;;;1.55;91.87;101736.31;5054875;28;20430;-70
2021/01/15 08:29:44;;;;;;;0.40;0.27;;;;;;;1.59;91.11;101734.84;5054065;28;20497;-69
2021/01/15 08:32:12;;;;;;;0.57;0.40;;;;;;;1.49;91.49;101745.16;5054619;28;20451;-69
2021/01/15 08:34:38;;;;;;;0.40;0.30;;;;;;;1.49;90.99;101745.97;5054458;28;20499;-69
2021/01/15 08:37:06;;;;;;;0.40;0.30;;;;;;;1.44;89.63;101743.13;5054395;28;20490;-70
2021/01/15 08:39:43;;;;;;;0.40;0.30;;;;;;;1.30;90.14;101754.88;5054230;28;20466;-70
2021/01/15 08:42:10;;;;;;;0.40;0.30;;;;;;;1.20;89.94;101749.19;5054361;28;20949;-69
2021/01/15 08:44:39;;;;;;;0.50;0.40;;;;;;;1.34;89.61;101740.09;5054001;28;20442;-69
2021/01/15 08:47:09;;;;;;;0.40;0.30;;;;;;;1.36;89.20;101755.88;5054284;28;20447;-69
2021/01/15 08:49:36;;;;;;;0.40;0.40;;;;;;;1.39;89.59;101750.13;5054128;28;20470;-69
2021/01/15 08:52:03;;;;;;;0.50;0.40;;;;;;;1.31;88.81;101753.84;5055199;28;20441;-70
2021/01/15 08:54:30;;;;;;;0.50;0.50;;;;;;;1.18;88.06;101765.38;5054000;28;20435;-71
2021/01/15 08:56:57;;;;;;;0.40;0.30;;;;;;;1.15;88.62;101765.81;5053780;28;20486;-71
2021/01/15 08:59:26;;;;;;;0.40;0.27;;;;;;;1.19;88.38;101769.69;5053634;28;20472;-70
2021/01/15 09:01:54;;;;;;;0.50;0.40;;;;;;;1.33;89.30;101766.97;5053909;28;20472;-71
2021/01/15 09:04:24;;;;;;;0.40;0.37;;;;;;;1.26;88.46;101775.81;5053918;28;20477;-71
2021/01/15 09:06:53;;;;;;;0.40;0.30;;;;;;;1.13;88.06;101777.72;5053561;28;20445;-71
2021/01/15 09:09:21;;;;;;;0.40;0.40;;;;;;;1.25;88.31;101771.53;5053755;28;20484;-71
2021/01/15 09:11:49;;;;;;;0.50;0.50;;;;;;;1.27;87.76;101790.00;5053434;28;20469;-71
2021/01/15 09:14:19;;;;;;;1.10;1.00;;;;;;;1.39;88.56;101788.31;5053632;28;20447;-71
2021/01/15 09:16:47;;;;;;;0.40;0.30;;;;;;;1.24;88.04;101793.91;5053601;28;20489;-71
2021/01/15 09:19:16;;;;;;;0.40;0.30;;;;;;;1.17;88.48;101789.63;5053562;28;20464;-70
2021/01/15 09:21:46;;;;;;;3.23;0.77;;;;;;;1.23;88.08;101792.25;5053566;28;20478;-70
2021/01/15 09:24:13;;;;;;;0.40;0.30;;;;;;;1.18;88.03;101792.06;5053251;28;20441;-71
2021/01/15 09:26:39;;;;;;;0.40;0.20;;;;;;;1.20;88.54;101797.22;5053470;28;20437;-70
2021/01/15 09:29:05;;;;;;;0.40;0.20;;;;;;;1.07;89.28;101799.91;5053105;28;20469;-70
2021/01/15 09:31:32;;;;;;;0.40;0.30;;;;;;;1.10;89.31;101800.28;5053443;28;20485;-71
2021/01/15 09:33:59;;;;;;;3.90;1.07;;;;;;;1.09;88.47;101816.50;5053070;28;20448;-70
2021/01/15 09:36:27;;;;;;;0.40;0.30;;;;;;;1.00;89.18;101799.91;5052927;28;20912;-71
2021/01/15 09:38:54;;;;;;;0.40;0.20;;;;;;;1.02;89.45;101808.53;5052878;28;20486;-69
2021/01/15 09:41:21;;;;;;;0.53;0.50;;;;;;;1.00;89.51;101807.91;5053276;28;20477;-71
2021/01/15 09:43:47;;;;;;;0.40;0.30;;;;;;;1.02;89.54;101813.88;5053288;28;20446;-70
2021/01/15 09:46:21;;;;;;;1.33;0.50;;;;;;;0.91;89.31;101809.97;5053285;28;20588;-71
2021/01/15 09:48:47;;;;;;;0.40;0.30;;;;;;;0.83;90.67;101817.34;5052812;28;20880;-70
2021/01/15 09:51:13;;;;;;;0.87;0.40;;;;;;;0.71;90.36;101817.97;5053165;28;20434;-70
2021/01/15 09:53:41;;;;;;;0.40;0.30;;;;;;;0.64;90.04;101822.47;5052816;28;20931;-70
2021/01/15 09:56:07;;;;;;;0.40;0.20;;;;;;;0.65;91.35;101824.09;5052757;28;20860;-71
2021/01/15 09:58:33;;;;;;;0.50;0.40;;;;;;;0.50;90.62;101816.31;5053065;28;20887;-71
2021/01/15 10:00:59;;;;;;;0.40;0.30;;;;;;;0.58;91.47;101817.97;5053124;28;20555;-70
2021/01/15 10:03:26;;;;;;;0.40;0.40;;;;;;;0.69;91.57;101819.19;5053049;28;20438;-71
2021/01/15 10:05:52;;;;;;;0.40;0.30;;;;;;;0.65;90.99;101810.78;5052975;28;20449;-71
2021/01/15 10:08:23;;;;;;;2.60;1.23;;;;;;;0.62;91.61;101819.22;5055476;28;20441;-71
2021/01/15 10:10:50;;;;;;;0.40;0.30;;;;;;;0.79;91.30;101824.13;5056873;28;20483;-71
2021/01/15 10:13:16;;;;;;;0.40;0.30;;;;;;;0.85;90.90;101818.78;5057137;28;20446;-71
2021/01/15 10:15:42;;;;;;;0.40;0.40;;;;;;;0.60;91.18;101818.56;5056674;28;20811;-71
2021/01/15 10:18:09;;;;;;;0.40;0.30;;;;;;;0.64;91.43;101827.81;5056987;28;20438;-71
2021/01/15 10:20:35;;;;;;;0.40;0.30;;;;;;;0.65;90.76;101816.13;5056990;28;20455;-70
2021/01/15 10:23:01;;;;;;;1.53;1.43;;;;;;;0.74;90.91;101819.41;5056919;28;20443;-71
2021/01/15 10:25:28;;;;;;;0.63;0.50;;;;;;;0.73;90.99;101821.25;5057041;28;20446;-71
2021/01/15 10:27:55;;;;;;;0.40;0.30;;;;;;;0.79;90.90;101821.44;5056647;28;20832;-69
2021/01/15 10:30:22;;;;;;;0.40;0.30;;;;;;;0.74;91.13;101809.56;5056680;28;20498;-70
2021/01/15 10:32:49;;;;;;;1.33;1.03;;;;;;;0.73;91.17;101815.91;5056741;28;20454;-70
2021/01/15 10:35:15;;;;;;;0.60;0.47;;;;;;;0.60;91.08;101813.25;5056482;28;20500;-69
2021/01/15 10:37:42;;;;;;;0.40;0.30;;;;;;;0.72;91.59;101810.81;5056381;28;21018;-71
2021/01/15 10:40:09;;;;;;;0.40;0.30;;;;;;;0.78;90.99;101811.81;5056193;28;20468;-71
2021/01/15 10:42:39;;;;;;;0.67;0.67;;;;;;;0.77;90.44;101815.50;5056665;28;20442;-70
2021/01/15 10:45:07;;;;;;;0.50;0.40;;;;;;;0.89;90.57;101808.53;5056328;28;20959;-70
2021/01/15 10:47:33;;;;;;;0.40;0.40;;;;;;;0.83;90.01;101810.16;5056497;28;20471;-71
2021/01/15 10:49:59;;;;;;;0.40;0.30;;;;;;;0.99;90.33;101808.94;5056430;28;20519;-70
2021/01/15 10:52:25;;;;;;;4.57;0.97;;;;;;;1.00;89.86;101808.72;5056464;28;20474;-71
2021/01/15 10:54:52;;;;;;;0.40;0.30;;;;;;;0.81;89.06;101816.75;5056429;28;20472;-71
2021/01/15 10:57:18;;;;;;;0.40;0.30;;;;;;;0.69;89.57;101817.34;5055964;28;20521;-71
2021/01/15 10:59:44;;;;;;;0.57;0.57;;;;;;;0.56;89.49;101811.19;5055911;28;20994;-71
2021/01/15 11:02:11;;;;;;;0.40;0.30;;;;;;;0.67;90.43;101816.75;5055957;28;20951;-71
2021/01/15 11:04:37;;;;;;;0.40;0.30;;;;;;;0.74;90.04;101811.41;5056264;28;20465;-71
2021/01/15 11:07:05;;;;;;;0.40;0.30;;;;;;;0.71;89.65;101811.84;5055958;28;20442;-71
2021/01/15 11:09:32;;;;;;;0.40;0.30;;;;;;;0.72;89.39;101808.94;5056155;28;20466;-71
2021/01/15 11:11:59;;;;;;;0.40;0.30;;;;;;;0.71;88.67;101809.97;5055936;28;20446;-70
2021/01/15 11:14:26;;;;;;;0.57;0.57;;;;;;;0.68;88.75;101810.38;5055839;28;20435;-71
2021/01/15 11:16:54;;;;;;;0.40;0.30;;;;;;;0.62;88.38;101813.88;5056047;28;20481;-70
2021/01/15 11:19:21;;;;;;;0.40;0.30;;;;;;;0.57;89.35;101805.66;5055683;28;20454;-71
2021/01/15 11:21:49;;;;;;;0.40;0.30;;;;;;;0.64;88.92;101803.00;5056006;28;20454;-70
2021/01/15 11:24:15;;;;;;;0.40;0.30;;;;;;;0.66;88.83;101801.75;5056016;28;20453;-71
2021/01/15 11:26:41;;;;;;;1.07;1.00;;;;;;;0.62;88.83;101808.53;5055822;28;20471;-71
2021/01/15 11:29:10;;;;;;;1.27;0.60;;;;;;;0.64;89.11;101797.66;5055834;28;20524;-71
2021/01/15 11:31:36;;;;;;;0.70;0.70;;;;;;;0.75;88.67;101803.22;5056350;28;20479;-70
2021/01/15 11:34:03;;;;;;;0.40;0.30;;;;;;;0.63;89.34;101804.84;5055446;28;20438;-70
2021/01/15 11:36:31;;;;;;;0.40;0.30;;;;;;;0.51;88.54;101817.13;5055726;28;20953;-72
2021/01/15 11:38:58;;;;;;;0.40;0.40;;;;;;;0.56;89.74;101806.69;5055443;28;20891;-71
2021/01/15 11:41:24;;;;;;;0.40;0.30;;;;;;;0.67;88.69;101806.09;5055510;28;20446;-71